<?xml version="1.0" encoding="UTF-8" standalone="no" ?>
<gpx xmlns="http://www.topografix.com/GPX/1/1" xmlns:xsi="http://www.w3.org/2001/XMLSchema-instance" xsi:schemaLocation="http://www.topografix.com/GPX/1/1 http://www.topografix.com/GPX/1/1/gpx.xsd" version="1.1" creator="VisuGPX - https://www.visugpx.com">
  <metadata>
    <name>Promenade Majorque Chateau</name>
    <desc><![CDATA[Promenade Majorque Chateau]]></desc>
  </metadata>
  <trk>
    <name><![CDATA[ACTIVE LOG185505]]></name>
    <trkseg>
      <trkpt lat="39.73419" lon="2.78484">
        <ele>705.508</ele>
        <time>2013-05-02T16:55:03Z</time>
      </trkpt>
      <trkpt lat="39.73442" lon="2.78499">
        <ele>704.081</ele>
        <time>2013-05-02T16:55:58Z</time>
      </trkpt>
      <trkpt lat="39.73456" lon="2.78532">
        <ele>702.369</ele>
        <time>2013-05-02T16:56:23Z</time>
      </trkpt>
      <trkpt lat="39.73476" lon="2.78575">
        <ele>701.326</ele>
        <time>2013-05-02T16:56:55Z</time>
      </trkpt>
      <trkpt lat="39.73491" lon="2.78599">
        <ele>700.703</ele>
        <time>2013-05-02T16:57:18Z</time>
      </trkpt>
      <trkpt lat="39.73501" lon="2.7864">
        <ele>700.142</ele>
        <time>2013-05-02T16:57:43Z</time>
      </trkpt>
      <trkpt lat="39.73504" lon="2.78644">
        <ele>700.016</ele>
        <time>2013-05-02T16:57:45Z</time>
      </trkpt>
      <trkpt lat="39.73503" lon="2.78677">
        <ele>700.532</ele>
        <time>2013-05-02T16:58:11Z</time>
      </trkpt>
      <trkpt lat="39.73496" lon="2.78691">
        <ele>701.504</ele>
        <time>2013-05-02T16:58:33Z</time>
      </trkpt>
      <trkpt lat="39.735" lon="2.78743">
        <ele>701.828</ele>
        <time>2013-05-02T17:00:32Z</time>
      </trkpt>
      <trkpt lat="39.73505" lon="2.78791">
        <ele>700.945</ele>
        <time>2013-05-02T17:01:06Z</time>
      </trkpt>
      <trkpt lat="39.73496" lon="2.78801">
        <ele>700.047</ele>
        <time>2013-05-02T17:01:32Z</time>
      </trkpt>
      <trkpt lat="39.73484" lon="2.78809">
        <ele>700.134</ele>
        <time>2013-05-02T17:01:48Z</time>
      </trkpt>
      <trkpt lat="39.73474" lon="2.78827">
        <ele>700.357</ele>
        <time>2013-05-02T17:02:01Z</time>
      </trkpt>
      <trkpt lat="39.73468" lon="2.7884">
        <ele>700.244</ele>
        <time>2013-05-02T17:02:14Z</time>
      </trkpt>
      <trkpt lat="39.73458" lon="2.78846">
        <ele>699.71</ele>
        <time>2013-05-02T17:02:27Z</time>
      </trkpt>
      <trkpt lat="39.73444" lon="2.78843">
        <ele>699.267</ele>
        <time>2013-05-02T17:02:39Z</time>
      </trkpt>
      <trkpt lat="39.73435" lon="2.78854">
        <ele>698.921</ele>
        <time>2013-05-02T17:02:51Z</time>
      </trkpt>
      <trkpt lat="39.73429" lon="2.78872">
        <ele>698.215</ele>
        <time>2013-05-02T17:03:04Z</time>
      </trkpt>
      <trkpt lat="39.73419" lon="2.78889">
        <ele>696.278</ele>
        <time>2013-05-02T17:03:34Z</time>
      </trkpt>
      <trkpt lat="39.73418" lon="2.78891">
        <ele>696.173</ele>
        <time>2013-05-02T17:03:36Z</time>
      </trkpt>
      <trkpt lat="39.73415" lon="2.78888">
        <ele>695.068</ele>
        <time>2013-05-02T17:04:02Z</time>
      </trkpt>
      <trkpt lat="39.73414" lon="2.78915">
        <ele>693.917</ele>
        <time>2013-05-02T17:04:31Z</time>
      </trkpt>
      <trkpt lat="39.734" lon="2.78935">
        <ele>692.931</ele>
        <time>2013-05-02T17:04:53Z</time>
      </trkpt>
      <trkpt lat="39.73391" lon="2.78943">
        <ele>692.413</ele>
        <time>2013-05-02T17:05:04Z</time>
      </trkpt>
      <trkpt lat="39.73381" lon="2.78952">
        <ele>691.775</ele>
        <time>2013-05-02T17:05:16Z</time>
      </trkpt>
      <trkpt lat="39.73373" lon="2.78957">
        <ele>691.868</ele>
        <time>2013-05-02T17:05:28Z</time>
      </trkpt>
      <trkpt lat="39.73361" lon="2.78976">
        <ele>690.572</ele>
        <time>2013-05-02T17:05:51Z</time>
      </trkpt>
      <trkpt lat="39.73359" lon="2.78981">
        <ele>690.544</ele>
        <time>2013-05-02T17:05:55Z</time>
      </trkpt>
      <trkpt lat="39.73352" lon="2.79005">
        <ele>689.432</ele>
        <time>2013-05-02T17:06:17Z</time>
      </trkpt>
      <trkpt lat="39.73347" lon="2.79027">
        <ele>688.965</ele>
        <time>2013-05-02T17:06:36Z</time>
      </trkpt>
      <trkpt lat="39.73349" lon="2.79051">
        <ele>688.863</ele>
        <time>2013-05-02T17:06:52Z</time>
      </trkpt>
      <trkpt lat="39.73349" lon="2.79054">
        <ele>688.76</ele>
        <time>2013-05-02T17:06:56Z</time>
      </trkpt>
      <trkpt lat="39.73352" lon="2.79065">
        <ele>688.63</ele>
        <time>2013-05-02T17:07:04Z</time>
      </trkpt>
      <trkpt lat="39.73346" lon="2.79094">
        <ele>688.464</ele>
        <time>2013-05-02T17:07:30Z</time>
      </trkpt>
      <trkpt lat="39.73337" lon="2.79121">
        <ele>688.289</ele>
        <time>2013-05-02T17:07:54Z</time>
      </trkpt>
      <trkpt lat="39.73325" lon="2.7915">
        <ele>688.043</ele>
        <time>2013-05-02T17:08:16Z</time>
      </trkpt>
      <trkpt lat="39.73316" lon="2.79164">
        <ele>687.815</ele>
        <time>2013-05-02T17:08:42Z</time>
      </trkpt>
      <trkpt lat="39.73311" lon="2.79167">
        <ele>687.629</ele>
        <time>2013-05-02T17:08:49Z</time>
      </trkpt>
      <trkpt lat="39.73305" lon="2.79167">
        <ele>687.589</ele>
        <time>2013-05-02T17:08:53Z</time>
      </trkpt>
      <trkpt lat="39.7329" lon="2.79182">
        <ele>687.522</ele>
        <time>2013-05-02T17:09:13Z</time>
      </trkpt>
      <trkpt lat="39.73277" lon="2.79209">
        <ele>687.04</ele>
        <time>2013-05-02T17:09:41Z</time>
      </trkpt>
      <trkpt lat="39.73274" lon="2.7922">
        <ele>686.856</ele>
        <time>2013-05-02T17:09:50Z</time>
      </trkpt>
      <trkpt lat="39.73269" lon="2.7922">
        <ele>686.301</ele>
        <time>2013-05-02T17:10:13Z</time>
      </trkpt>
      <trkpt lat="39.73275" lon="2.79216">
        <ele>686.521</ele>
        <time>2013-05-02T17:10:18Z</time>
      </trkpt>
      <trkpt lat="39.73283" lon="2.79219">
        <ele>686.929</ele>
        <time>2013-05-02T17:10:23Z</time>
      </trkpt>
      <trkpt lat="39.73296" lon="2.79206">
        <ele>687.418</ele>
        <time>2013-05-02T17:10:47Z</time>
      </trkpt>
      <trkpt lat="39.73304" lon="2.79204">
        <ele>687.179</ele>
        <time>2013-05-02T17:10:51Z</time>
      </trkpt>
      <trkpt lat="39.73298" lon="2.79213">
        <ele>687.469</ele>
        <time>2013-05-02T17:11:10Z</time>
      </trkpt>
      <trkpt lat="39.73289" lon="2.79221">
        <ele>687.686</ele>
        <time>2013-05-02T17:11:24Z</time>
      </trkpt>
      <trkpt lat="39.73292" lon="2.79229">
        <ele>687.886</ele>
        <time>2013-05-02T17:11:43Z</time>
      </trkpt>
      <trkpt lat="39.73305" lon="2.79222">
        <ele>688.046</ele>
        <time>2013-05-02T17:12:02Z</time>
      </trkpt>
      <trkpt lat="39.73309" lon="2.79222">
        <ele>688.027</ele>
        <time>2013-05-02T17:12:07Z</time>
      </trkpt>
      <trkpt lat="39.73321" lon="2.79215">
        <ele>688.059</ele>
        <time>2013-05-02T17:12:28Z</time>
      </trkpt>
      <trkpt lat="39.73335" lon="2.79215">
        <ele>688.363</ele>
        <time>2013-05-02T17:12:56Z</time>
      </trkpt>
      <trkpt lat="39.73342" lon="2.792">
        <ele>688.101</ele>
        <time>2013-05-02T17:13:29Z</time>
      </trkpt>
      <trkpt lat="39.73356" lon="2.79189">
        <ele>687.853</ele>
        <time>2013-05-02T17:13:55Z</time>
      </trkpt>
      <trkpt lat="39.73361" lon="2.79193">
        <ele>687.619</ele>
        <time>2013-05-02T17:14:26Z</time>
      </trkpt>
      <trkpt lat="39.73378" lon="2.79178">
        <ele>687.804</ele>
        <time>2013-05-02T17:14:47Z</time>
      </trkpt>
      <trkpt lat="39.73377" lon="2.79158">
        <ele>688.089</ele>
        <time>2013-05-02T17:15:09Z</time>
      </trkpt>
      <trkpt lat="39.73378" lon="2.79148">
        <ele>689.202</ele>
        <time>2013-05-02T17:15:38Z</time>
      </trkpt>
      <trkpt lat="39.7338" lon="2.79129">
        <ele>696.947</ele>
        <time>2013-05-02T17:16:26Z</time>
      </trkpt>
      <trkpt lat="39.73381" lon="2.79117">
        <ele>700.059</ele>
        <time>2013-05-02T17:17:12Z</time>
      </trkpt>
      <trkpt lat="39.73388" lon="2.79146">
        <ele>703.224</ele>
        <time>2013-05-02T17:17:33Z</time>
      </trkpt>
      <trkpt lat="39.73393" lon="2.79158">
        <ele>706.906</ele>
        <time>2013-05-02T17:17:42Z</time>
      </trkpt>
      <trkpt lat="39.73396" lon="2.7916">
        <ele>708.025</ele>
        <time>2013-05-02T17:17:46Z</time>
      </trkpt>
      <trkpt lat="39.73401" lon="2.79168">
        <ele>717.6</ele>
        <time>2013-05-02T17:18:01Z</time>
      </trkpt>
      <trkpt lat="39.73401" lon="2.79175">
        <ele>724.515</ele>
        <time>2013-05-02T17:18:21Z</time>
      </trkpt>
      <trkpt lat="39.73389" lon="2.79202">
        <ele>733.337</ele>
        <time>2013-05-02T17:19:50Z</time>
      </trkpt>
      <trkpt lat="39.73386" lon="2.79202">
        <ele>739.217</ele>
        <time>2013-05-02T17:20:20Z</time>
      </trkpt>
      <trkpt lat="39.73371" lon="2.79208">
        <ele>738.588</ele>
        <time>2013-05-02T17:20:42Z</time>
      </trkpt>
      <trkpt lat="39.73363" lon="2.79231">
        <ele>738.836</ele>
        <time>2013-05-02T17:21:01Z</time>
      </trkpt>
      <trkpt lat="39.7334" lon="2.79245">
        <ele>740.903</ele>
        <time>2013-05-02T17:21:27Z</time>
      </trkpt>
      <trkpt lat="39.73337" lon="2.79256">
        <ele>748.472</ele>
        <time>2013-05-02T17:21:44Z</time>
      </trkpt>
      <trkpt lat="39.73335" lon="2.79268">
        <ele>752.675</ele>
        <time>2013-05-02T17:22:03Z</time>
      </trkpt>
      <trkpt lat="39.7333" lon="2.7927">
        <ele>757.07</ele>
        <time>2013-05-02T17:22:19Z</time>
      </trkpt>
      <trkpt lat="39.73316" lon="2.79268">
        <ele>757.006</ele>
        <time>2013-05-02T17:22:41Z</time>
      </trkpt>
      <trkpt lat="39.73309" lon="2.79264">
        <ele>757.118</ele>
        <time>2013-05-02T17:22:48Z</time>
      </trkpt>
      <trkpt lat="39.73305" lon="2.79264">
        <ele>757.189</ele>
        <time>2013-05-02T17:23:02Z</time>
      </trkpt>
      <trkpt lat="39.73302" lon="2.79275">
        <ele>756.386</ele>
        <time>2013-05-02T17:23:20Z</time>
      </trkpt>
      <trkpt lat="39.73291" lon="2.79268">
        <ele>757.826</ele>
        <time>2013-05-02T17:23:36Z</time>
      </trkpt>
      <trkpt lat="39.73285" lon="2.7927">
        <ele>760.913</ele>
        <time>2013-05-02T17:23:50Z</time>
      </trkpt>
      <trkpt lat="39.73284" lon="2.79273">
        <ele>763.816</ele>
        <time>2013-05-02T17:24:03Z</time>
      </trkpt>
      <trkpt lat="39.73281" lon="2.7927">
        <ele>766.332</ele>
        <time>2013-05-02T17:24:10Z</time>
      </trkpt>
      <trkpt lat="39.73274" lon="2.7927">
        <ele>769.626</ele>
        <time>2013-05-02T17:24:24Z</time>
      </trkpt>
      <trkpt lat="39.73271" lon="2.79279">
        <ele>770.436</ele>
        <time>2013-05-02T17:24:40Z</time>
      </trkpt>
      <trkpt lat="39.73275" lon="2.79283">
        <ele>772.234</ele>
        <time>2013-05-02T17:24:47Z</time>
      </trkpt>
      <trkpt lat="39.73273" lon="2.79287">
        <ele>774.574</ele>
        <time>2013-05-02T17:24:54Z</time>
      </trkpt>
      <trkpt lat="39.73268" lon="2.79288">
        <ele>776.183</ele>
        <time>2013-05-02T17:25:00Z</time>
      </trkpt>
      <trkpt lat="39.7326" lon="2.79286">
        <ele>778.071</ele>
        <time>2013-05-02T17:25:07Z</time>
      </trkpt>
      <trkpt lat="39.73254" lon="2.79287">
        <ele>781.713</ele>
        <time>2013-05-02T17:25:31Z</time>
      </trkpt>
      <trkpt lat="39.73248" lon="2.79298">
        <ele>781.884</ele>
        <time>2013-05-02T17:25:51Z</time>
      </trkpt>
      <trkpt lat="39.73244" lon="2.79323">
        <ele>782.571</ele>
        <time>2013-05-02T17:26:13Z</time>
      </trkpt>
      <trkpt lat="39.73242" lon="2.79333">
        <ele>782.676</ele>
        <time>2013-05-02T17:26:34Z</time>
      </trkpt>
    </trkseg>
  </trk>
</gpx>